Weather observations for the past three days for
Needles, Needles Airport
Metric (Imperial)
Date Time (pdt) Wind (kph) Vis. (km) Weather Sky Cond. Temperature (ºC) Relative Humidity Wind Chill (°C) Heat Index (°C) Pressure Precipitation (cm)
Air Dwpt 6 hour altimeter (cm) sea level (mb) 1 hr 3 hr 6 hr
Max. Min.
07 14:56 NE 22 G 33 16.09 Fair CLR 36.7 -6.7 6% 34 75.72 1006.4
07 13:56 N 13 G 33 16.09 Fair CLR 35.6 -6.7 6% 33 75.82 1007.6
07 12:56 N 22 G 35 16.09 Fair CLR 35.6 -5 7% 33 75.87 1008.3
07 11:56 Vrbl 9 16.09 Fair CLR 33.3 -7.8 6% 31 75.95 1009.5
07 10:56 N 19 16.09 Fair CLR 32.2 -6.7 32.2 17.2 8% 30 76 1010.1
07 08:56 N 9 16.09 Fair CLR 27.2 0.6 18% 26 76.07 1011.4
07 07:56 Calm 16.09 Fair CLR 23.9 0.6 22% 25 76.1 1011.8
07 06:56 W 7 16.09 Fair CLR 21.7 0.6 25% 76.1 1011.7
07 05:56 NW 9 16.09 Fair CLR 17.2 0 31% 76.05 1011.3
07 04:56 N 7 16.09 Fair CLR 18.9 0.6 26.7 18.9 29% 76.02 1010.9
07 03:56 NW 7 16.09 Fair CLR 19.4 0.6 29% 76.02 1010.9
07 02:56 NW 9 16.09 Fair CLR 20.6 0.6 26% 76.02 1010.9
07 01:56 NW 6 16.09 Fair CLR 21.1 0.6 26% 76.02 1011.0
07 00:56 Calm 16.09 Fair CLR 23.3 1.1 23% 76.02 1011.0
06 23:56 W 13 16.09 Fair CLR 26.1 1.7 20% 26 76 1010.4
06 22:56 SW 26 16.09 Fair CLR 26.7 1.7 31.1 26.7 20% 26 75.95 1009.8
06 21:56 SW 28 16.09 Fair CLR 27.2 1.7 19% 26 75.92 1009.7
06 20:56 SW 26 16.09 Fair CLR 28.3 1.7 18% 27 75.9 1009.2
06 19:56 SW 13 16.09 Fair CLR 28.9 0.6 16% 27 75.87 1008.9
06 18:56 Calm 16.09 Fair CLR 30.6 1.1 15% 29 75.84 1008.7
06 17:56 NE 6 16.09 Fair CLR 30.6 1.1 15% 29 75.87 1008.9
06 16:56 NE 13 16.09 Fair CLR 31.1 1.7 31.7 25.6 15% 29 75.87 1009.0
06 15:56 NE 15 16.09 Fair CLR 30.6 2.2 16% 29 75.92 1009.5
06 14:56 Calm 16.09 Fair CLR 30 1.7 16% 28 75.97 1010.4
06 13:56 Calm 16.09 Fair CLR 28.3 1.1 17% 27 76.05 1011.5
06 12:56 Calm 16.09 Fair CLR 27.2 1.7 19% 26 76.1 1012.0
06 11:56 Calm 16.09 Fair CLR 27.2 2.8 21% 26 76.15 1012.8
06 10:56 Vrbl 7 16.09 Fair CLR 25.6 2.8 25.6 15.6 23% 25 76.2 1013.3
06 09:56 E 7 16.09 Fair CLR 22.8 2.8 27% 76.2 1013.6
06 08:56 NE 11 16.09 Fair CLR 21.1 2.8 30% 76.2 1013.6
06 07:56 SE 13 16.09 Fair CLR 20 2.2 31% 76.17 1013.4
06 06:56 Calm 16.09 Fair CLR 17.8 2.2 35% 76.15 1013.1
06 05:56 Calm 16.09 Fair CLR 16.1 1.7 38% 76.1 1012.3
06 04:56 Calm 16.09 Fair CLR 16.1 1.7 20.6 16.1 38% 76.05 1011.8
06 03:56 SW 9 16.09 Fair CLR 17.2 1.7 35% 76.02 1011.2
06 02:56 S 6 16.09 Fair CLR 17.2 1.7 35% 75.97 1010.9
06 01:56 SW 11 16.09 Fair CLR 18.3 1.7 33% 75.97 1010.7
06 00:56 W 11 16.09 Fair CLR 20 1.7 30% 75.97 1010.6
05 23:56 S 19 16.09 Fair CLR 20.6 1.7 29% 75.92 1009.9
05 22:56 S 24 16.09 Fair CLR 20.6 2.2 26.1 20.6 30% 75.87 1009.3
05 21:56 SW 19 16.09 Fair CLR 21.7 0.6 25% 75.84 1008.8
05 20:56 S 13 16.09 Fair CLR 22.8 -0.6 21% 75.79 1008.3
05 19:56 S 13 16.09 Fair CLR 23.3 -0.6 20% 75.72 1007.4
05 18:56 S 13 16.09 Fair CLR 24.4 0 20% 25 75.67 1006.6
05 17:56 SW 20 G 35 16.09 Fair CLR 25.6 -0.6 18% 25 75.67 1006.6
05 16:56 S 11 16.09 Overcast OVC100 25.6 -1.1 25.6 21.7 17% 25 75.64 1006.0
05 15:56 SW 22 G 33 16.09 A Few Clouds FEW110 25 -0.6 18% 25 75.64 1006.2
05 14:56 Vrbl 7 G 28 16.09 Overcast OVC100 24.4 0 20% 25 75.69 1006.9
05 13:56 Vrbl 6 16.09 Partly Cloudy SCT100 24.4 0 20% 25 75.74 1007.5
05 12:56 W 13 G 30 16.09 Mostly Cloudy BKN100 23.9 1.1 22% 25 75.77 1007.9
05 11:56 Calm 16.09 Mostly Cloudy SCT080 BKN095 22.2 1.7 26% 75.79 1008.4
05 10:56 Vrbl 9 16.09 Mostly Cloudy BKN075 BKN090 22.2 2.2 23.3 15 27% 75.82 1008.7
05 09:56 Vrbl 6 16.09 Fair CLR 21.1 2.8 30% 75.82 1008.7
05 08:56 W 6 16.09 Fair CLR 20.6 2.8 31% 75.82 1008.5
05 07:56 NE 9 16.09 Fair CLR 19.4 3.3 35% 75.82 1008.5
05 06:56 SW 11 16.09 Partly Cloudy SCT085 17.2 3.9 41% 75.79 1008.2
05 05:56 SW 13 16.09 Fair CLR 15 4.4 49% 75.74 1007.6
05 04:56 SW 17 16.09 Fair CLR 16.1 4.4 21.1 16.1 46% 75.72 1007.4
05 03:56 SW 26 16.09 Fair CLR 17.2 4.4 43% 75.72 1007.0
05 02:56 SW 24 16.09 Fair CLR 17.8 3.3 38% 75.69 1007.0
05 01:56 S 11 16.09 Fair CLR 18.9 2.8 34% 75.72 1007.1
05 00:56 S 15 16.09 Fair CLR 20.6 2.2 30% 75.74 1007.2
04 23:56 S 17 16.09 Fair CLR 21.1 2.2 29% 75.72 1006.9
04 22:56 S 19 16.09 Fair CLR 21.1 0.6 26.7 21.1 26% 75.69 1006.9
04 21:56 S 20 16.09 Fair CLR 22.2 -0.6 22% 75.72 1007.0
04 20:56 S 17 G 37 16.09 Fair CLR 22.8 0.6 23% 75.67 1006.6
04 19:56 S 28 G 43 16.09 Fair CLR 23.9 -1.1 19% 24 75.62 1005.8
04 18:56 SE 22 16.09 Fair CLR 25.6 -1.1 17% 25 75.59 1005.4
04 17:56 S 24 G 33 16.09 Fair CLR 26.1 0 18% 25 75.62 1005.4
04 16:56 S 13 G 48 16.09 Fair CLR 26.7 0.6 27.2 22.8 18% 26 75.62 1005.5
04 15:56 S 19 G 28 16.09 Fair CLR 26.7 1.7 20% 26 75.64 1005.8
Date Time (pdt) Wind (kph) Vis. (km) Weather Sky Cond. Air Dwpt Max. Min. Relative Humidity Wind Chill (°C) Heat Index (°C) altimeter (cm) sea level (mb) 1 hr 3 hr 6 hr
6 hour
Temperature (ºC) Pressure Precipitation (cm)